Boswell, Indiana
Current Conditions -  °F | °C
As of 10:54 AM on Saturday 20 Dec 2014 (Local Time) from KLAF Reporting Station
Haze Haze  
Wind Chill: 30°   Ceiling: 2500
Heat Index: 30°   Visibility: 5mi
Dew Point: 27°   Wind: 0mph
Humidity: 88%   Direction: NA
Pressure: 30.32"   Gusts: NA
Location:  40.52°N, 87.38°W
Report Text: KLAF 201554Z 00000KT 5SM BR OVC025 M01/M03 A3032 RMK AO2 SLP274 T10111028
Loading
Personal Weather Stations






























Interactive Weather Map New forecast layout! Learn more

10-Day Weather Forecast

Advertisements
Track Severe Weather on mobile